Time;durP1;ratioP1;P1;durP2;ratioP2;P2;SDS_P1;SDS_P2;PMS_P1;PMS_P2;Temp;Humidity;BMP_temperature;BMP_pressure;BME280_temperature;BME280_humidity;BME280_pressure;Samples;Min_cycle;Max_cycle;Signal;HPM_P1;HPM_P2
2022/12/29 00:02:43;;;;;;;2.37;1.90;;;;;;;9.66;54.07;97474.53;8450346;28;20240;-67
2022/12/29 00:06:50;;;;;;;2.30;1.80;;;;;;;9.65;54.13;97479.75;8450435;28;20232;-68
2022/12/29 00:10:52;;;;;;;2.40;1.30;;;;;;;9.76;53.45;97480.09;8449577;28;20228;-68
2022/12/29 00:36:38;;;;;;;2.60;2.00;;;;;;;9.65;54.01;97462.50;8449481;28;20245;-67
2022/12/29 00:45:02;;;;;;;2.03;1.83;;;;;;;9.82;53.98;97466.00;8448621;28;20226;-67
2022/12/29 00:53:26;;;;;;;2.07;1.77;;;;;;;8.70;53.53;97286.22;8448625;28;20234;-67
2022/12/29 00:57:30;;;;;;;3.97;1.90;;;;;;;9.94;53.48;97444.72;8448798;28;20223;-67
2022/12/29 01:01:33;;;;;;;2.73;1.80;;;;;;;10.03;53.59;97456.34;8448394;28;20252;-67
2022/12/29 01:05:37;;;;;;;1.90;1.53;;;;;;;9.86;54.05;97445.13;8448165;28;20234;-68
2022/12/29 01:14:01;;;;;;;2.00;1.80;;;;;;;9.94;54.04;97442.16;8447363;28;20234;-67
2022/12/29 01:18:04;;;;;;;1.70;1.57;;;;;;;9.93;53.72;97440.47;8447383;28;20243;-67
2022/12/29 01:22:07;;;;;;;3.00;1.77;;;;;;;9.96;53.70;97435.97;8447663;28;20297;-67
2022/12/29 01:26:11;;;;;;;2.97;1.73;;;;;;;9.53;54.44;97435.50;8447805;28;20235;-67
2022/12/29 01:30:15;;;;;;;1.90;1.50;;;;;;;9.89;53.88;97426.00;8447566;28;20227;-68
2022/12/29 01:34:19;;;;;;;2.53;1.50;;;;;;;10.00;53.67;97420.31;8446531;28;20488;-67
2022/12/29 01:38:22;;;;;;;2.17;1.50;;;;;;;10.17;53.45;97417.69;8447375;28;20492;-67
2022/12/29 01:42:26;;;;;;;2.03;1.77;;;;;;;10.03;53.87;97420.13;8447241;28;20233;-68
2022/12/29 01:46:32;;;;;;;3.73;1.80;;;;;;;10.21;53.07;97413.19;8447296;28;20301;-68
2022/12/29 01:50:38;;;;;;;2.23;1.50;;;;;;;10.05;53.17;97406.22;8446952;28;20248;-68
2022/12/29 01:54:43;;;;;;;1.60;1.50;;;;;;;10.26;52.89;97411.19;8446821;28;20238;-68
2022/12/29 01:58:48;;;;;;;1.90;1.67;;;;;;;10.28;52.77;97409.34;8446852;28;20310;-68
2022/12/29 02:02:53;;;;;;;2.40;1.30;;;;;;;10.08;52.86;97369.81;8446896;28;20541;-68
2022/12/29 02:06:59;;;;;;;1.73;1.47;;;;;;;10.33;53.00;97400.47;8445880;28;20395;-68
2022/12/29 02:11:02;;;;;;;1.90;1.43;;;;;;;10.28;53.08;97407.63;8446372;28;20234;-68
2022/12/29 02:15:05;;;;;;;2.13;1.53;;;;;;;10.37;52.84;97399.38;8446377;28;20234;-68
2022/12/29 02:19:37;;;;;;;2.47;1.50;;;;;;;10.33;52.89;97400.47;8446017;28;20231;-68
2022/12/29 02:24:18;;;;;;;2.10;1.40;;;;;;;10.40;52.94;97389.81;8446299;28;20265;-68
2022/12/29 02:28:57;;;;;;;2.17;1.40;;;;;;;10.46;52.68;97395.47;8445786;28;20244;-68
2022/12/29 02:33:08;;;;;;;3.43;1.40;;;;;;;10.33;53.14;97391.88;8420790;28;20250;-68
2022/12/29 02:37:17;;;;;;;1.53;1.43;;;;;;;10.49;52.71;97394.47;8445912;28;20230;-68
2022/12/29 02:41:23;;;;;;;1.20;1.10;;;;;;;10.50;52.81;97389.22;8446067;28;20514;-68
2022/12/29 02:45:31;;;;;;;2.63;1.50;;;;;;;10.34;53.31;97396.16;8446010;28;20223;-69
2022/12/29 02:49:40;;;;;;;1.50;1.40;;;;;;;10.58;52.55;97394.00;8452606;28;20286;-68
2022/12/29 02:58:18;;;;;;;1.70;1.30;;;;;;;10.66;52.37;97394.44;8452315;28;20230;-68
2022/12/29 03:02:31;;;;;;;1.83;1.33;;;;;;;10.51;52.52;97385.72;8451866;28;20228;-66
2022/12/29 03:06:51;;;;;;;2.63;1.37;;;;;;;10.37;53.07;97383.84;8452190;28;20228;-66
2022/12/29 03:11:01;;;;;;;1.90;1.50;;;;;;;10.51;52.88;97371.97;8451680;28;20533;-66
2022/12/29 03:19:30;;;;;;;1.50;1.40;;;;;;;10.35;53.26;97371.91;8451769;28;20232;-66
2022/12/29 03:23:35;;;;;;;2.87;1.60;;;;;;;10.40;52.90;97366.50;8451659;28;20226;-66
2022/12/29 03:27:41;;;;;;;3.27;1.30;;;;;;;10.56;52.35;97363.00;8451599;28;20223;-68
2022/12/29 03:31:45;;;;;;;1.60;1.30;;;;;;;10.59;52.47;97364.59;8451290;28;20452;-68
2022/12/29 03:35:50;;;;;;;1.47;1.37;;;;;;;10.65;51.83;97353.91;8451507;28;20234;-68
2022/12/29 03:39:55;;;;;;;2.20;1.30;;;;;;;10.72;52.47;97368.19;8450808;28;20431;-69
2022/12/29 03:43:58;;;;;;;2.30;1.30;;;;;;;10.87;52.31;97357.91;8451130;28;20226;-68
2022/12/29 03:48:01;;;;;;;1.30;1.13;;;;;;;10.73;52.27;97359.50;8451030;28;20424;-68
2022/12/29 03:52:04;;;;;;;2.10;1.30;;;;;;;10.75;52.21;97349.88;8450545;28;20231;-68
2022/12/29 03:56:09;;;;;;;1.67;1.40;;;;;;;10.84;52.04;97365.88;8450809;28;20294;-68
2022/12/29 04:00:13;;;;;;;1.80;1.47;;;;;;;10.78;52.33;97361.03;8449822;28;20224;-69
2022/12/29 04:04:15;;;;;;;2.30;1.40;;;;;;;10.80;52.53;97359.19;8450433;28;20227;-69
2022/12/29 04:08:19;;;;;;;2.80;1.40;;;;;;;10.66;52.55;97359.91;8450342;28;20411;-69
2022/12/29 04:12:23;;;;;;;1.70;1.27;;;;;;;10.80;52.27;97367.78;8449974;28;20230;-68
2022/12/29 04:16:26;;;;;;;2.77;1.50;;;;;;;10.75;52.22;97370.59;8449951;28;20225;-68
2022/12/29 04:24:49;;;;;;;2.43;1.87;;;;;;;10.48;52.55;97372.94;8449374;28;20236;-68
2022/12/29 04:28:53;;;;;;;3.17;2.70;;;;;;;10.65;52.49;97366.03;8449354;28;20251;-69
2022/12/29 04:32:56;;;;;;;5.17;3.27;;;;;;;10.47;52.77;97363.53;8448952;28;20235;-69
2022/12/29 04:36:58;;;;;;;5.20;3.40;;;;;;;10.48;52.82;97367.75;8449192;28;20235;-68
2022/12/29 04:41:02;;;;;;;5.93;3.30;;;;;;;10.19;52.76;97314.94;8449149;28;20232;-68
2022/12/29 04:45:08;;;;;;;7.07;4.17;;;;;;;10.27;53.30;97367.13;8448940;28;20228;-68
2022/12/29 04:49:11;;;;;;;3.70;2.80;;;;;;;10.39;53.15;97364.84;8448756;28;20231;-69
2022/12/29 04:53:14;;;;;;;3.87;2.20;;;;;;;10.57;53.00;97362.09;8448735;28;20228;-69
2022/12/29 04:57:17;;;;;;;2.90;2.00;;;;;;;10.64;52.49;97361.75;8448629;28;20236;-66
2022/12/29 05:01:21;;;;;;;1.77;1.67;;;;;;;10.74;52.56;97370.72;8448387;28;20491;-66
2022/12/29 05:05:24;;;;;;;2.23;1.73;;;;;;;10.55;52.90;97365.69;8448468;28;20239;-67
2022/12/29 05:09:27;;;;;;;2.07;1.60;;;;;;;10.71;52.36;97374.28;8447150;28;20224;-67
2022/12/29 05:13:29;;;;;;;1.63;1.53;;;;;;;10.83;52.40;97369.34;8447956;28;20228;-67
2022/12/29 05:17:34;;;;;;;1.70;1.60;;;;;;;10.34;53.65;97370.25;8447792;28;20292;-67
2022/12/29 05:21:37;;;;;;;1.70;1.60;;;;;;;10.64;52.66;97370.38;8447954;28;20222;-67
2022/12/29 05:25:40;;;;;;;2.43;1.43;;;;;;;10.04;53.81;97357.16;8447504;28;20442;-67
2022/12/29 05:29:43;;;;;;;2.50;1.50;;;;;;;10.57;53.15;97353.50;8447704;28;20231;-67
2022/12/29 05:33:47;;;;;;;2.60;1.40;;;;;;;9.88;53.44;97275.19;8447468;28;20231;-67
2022/12/29 05:37:50;;;;;;;1.63;1.17;;;;;;;10.54;52.62;97348.47;8447521;28;20231;-67
2022/12/29 05:41:52;;;;;;;3.33;1.70;;;;;;;10.23;53.21;97342.31;8446611;28;20431;-67
2022/12/29 05:45:56;;;;;;;3.17;1.80;;;;;;;10.30;52.60;97304.00;8447327;28;20238;-67
2022/12/29 05:50:00;;;;;;;1.63;1.50;;;;;;;10.18;52.73;97332.22;8447233;28;20438;-67
2022/12/29 05:54:03;;;;;;;1.70;1.30;;;;;;;10.33;53.18;97350.47;8446847;28;20292;-67
2022/12/29 05:58:06;;;;;;;1.57;1.30;;;;;;;10.41;52.49;97337.94;8446595;28;20235;-67
2022/12/29 06:02:10;;;;;;;1.73;1.57;;;;;;;10.14;53.17;97337.63;8446808;28;20235;-67
2022/12/29 06:06:14;;;;;;;2.83;1.43;;;;;;;9.98;53.84;97335.84;8446585;28;20250;-67
2022/12/29 06:10:17;;;;;;;4.40;1.50;;;;;;;10.12;53.13;97340.28;8446229;28;20224;-66
2022/12/29 06:14:20;;;;;;;1.90;1.40;;;;;;;10.12;53.16;97317.00;8446213;28;20241;-67
2022/12/29 06:18:23;;;;;;;1.70;1.50;;;;;;;10.14;53.21;97329.88;8446480;28;20235;-67
2022/12/29 06:22:28;;;;;;;4.43;1.70;;;;;;;10.08;53.36;97314.66;8445975;28;20222;-67
2022/12/29 06:26:31;;;;;;;1.67;1.27;;;;;;;10.31;52.60;97336.78;8446114;28;20230;-67
2022/12/29 06:30:34;;;;;;;2.73;1.70;;;;;;;10.28;52.69;97329.97;8446203;28;20233;-67
2022/12/29 06:34:37;;;;;;;1.50;1.40;;;;;;;10.13;52.65;97348.91;8446164;28;20234;-67
2022/12/29 06:38:41;;;;;;;2.23;1.70;;;;;;;10.15;52.88;97360.00;8446043;28;20236;-67
2022/12/29 06:42:44;;;;;;;2.67;1.30;;;;;;;10.03;52.90;97345.94;8445769;28;20238;-69
2022/12/29 06:46:47;;;;;;;2.70;1.67;;;;;;;9.98;52.73;97361.72;8446132;28;20430;-67
2022/12/29 06:50:50;;;;;;;2.53;1.40;;;;;;;10.00;52.80;97353.88;8445990;28;20240;-67
2022/12/29 06:54:54;;;;;;;1.40;1.30;;;;;;;10.20;52.35;97352.00;8445282;28;20237;-67
2022/12/29 06:58:59;;;;;;;2.23;1.47;;;;;;;10.24;52.10;97346.56;8445723;28;20238;-67
2022/12/29 07:03:02;;;;;;;1.50;1.30;;;;;;;10.28;51.84;97347.25;8445132;28;20230;-67
2022/12/29 07:07:06;;;;;;;1.97;1.77;;;;;;;10.12;51.79;97348.06;8445263;28;20293;-67
2022/12/29 07:11:10;;;;;;;1.13;1.10;;;;;;;10.26;51.54;97357.69;8444988;28;20254;-67
2022/12/29 07:15:13;;;;;;;2.60;1.60;;;;;;;10.32;51.37;97359.97;8444914;28;20243;-67
2022/12/29 07:19:16;;;;;;;2.00;1.53;;;;;;;10.18;51.18;97352.94;8445574;28;20233;-67
2022/12/29 07:23:18;;;;;;;3.43;2.50;;;;;;;10.24;51.05;97369.03;8445309;28;20226;-67
2022/12/29 07:27:22;;;;;;;2.50;1.67;;;;;;;10.25;51.42;97373.31;8445047;28;20220;-67
2022/12/29 07:31:25;;;;;;;4.33;3.47;;;;;;;10.06;51.65;97373.41;8445243;28;20231;-67
2022/12/29 07:35:28;;;;;;;2.90;1.83;;;;;;;10.24;51.38;97374.19;8449942;28;20231;-67
2022/12/29 07:39:31;;;;;;;1.53;1.43;;;;;;;10.35;51.61;97382.28;8451091;28;20226;-66
2022/12/29 07:43:36;;;;;;;4.57;2.77;;;;;;;10.41;51.48;97360.41;8450811;28;20419;-67
2022/12/29 07:47:38;;;;;;;2.93;2.13;;;;;;;10.48;51.56;97378.13;8450861;28;20512;-67
2022/12/29 07:51:41;;;;;;;2.70;1.60;;;;;;;10.37;50.82;97370.91;8450824;28;20232;-67
2022/12/29 07:55:44;;;;;;;1.73;1.53;;;;;;;10.42;50.73;97370.69;8450505;28;20243;-66
2022/12/29 07:59:48;;;;;;;1.50;1.40;;;;;;;10.20;50.67;97323.53;8450412;28;20227;-66
2022/12/29 08:03:51;;;;;;;2.50;1.70;;;;;;;10.46;50.58;97368.78;8450541;28;20232;-67
2022/12/29 08:07:59;;;;;;;2.57;1.70;;;;;;;10.37;50.46;97372.66;8449942;28;20226;-67
2022/12/29 08:12:02;;;;;;;2.07;1.67;;;;;;;10.55;50.18;97366.53;8450004;28;20439;-67
2022/12/29 08:16:07;;;;;;;1.90;1.80;;;;;;;10.71;50.00;97382.06;8449661;28;20250;-67
2022/12/29 08:20:10;;;;;;;2.40;1.70;;;;;;;10.77;49.98;97383.47;8449704;28;20234;-67
2022/12/29 08:24:14;;;;;;;1.90;1.70;;;;;;;10.87;49.49;97387.25;8449249;28;20224;-67
2022/12/29 08:28:17;;;;;;;2.03;1.60;;;;;;;11.05;49.43;97375.03;8449446;28;20224;-66
2022/12/29 08:32:21;;;;;;;1.97;1.83;;;;;;;11.00;49.75;97368.44;8449471;28;20511;-67
2022/12/29 08:36:25;;;;;;;1.73;1.60;;;;;;;11.00;49.31;97384.81;8449194;28;20246;-67
2022/12/29 08:40:27;;;;;;;4.03;1.70;;;;;;;11.26;49.32;97387.72;8449068;28;20245;-67
2022/12/29 08:44:30;;;;;;;1.87;1.60;;;;;;;11.07;49.74;97387.91;8448700;28;20424;-67
2022/12/29 08:48:35;;;;;;;2.93;1.50;;;;;;;11.14;49.22;97395.25;8448763;28;20418;-67
2022/12/29 08:52:37;;;;;;;2.60;1.43;;;;;;;11.13;49.07;97392.75;8448649;28;20370;-68
2022/12/29 08:56:40;;;;;;;1.50;1.37;;;;;;;11.41;48.74;97391.19;8448225;28;20239;-69
2022/12/29 09:00:43;;;;;;;3.03;1.47;;;;;;;11.30;49.15;97394.38;8448342;28;20414;-69
2022/12/29 09:04:47;;;;;;;2.30;1.87;;;;;;;11.41;49.15;97396.38;8448321;28;20251;-69
2022/12/29 09:08:50;;;;;;;1.70;1.60;;;;;;;10.98;49.20;97328.81;8448112;28;20295;-69
2022/12/29 09:12:53;;;;;;;3.63;1.70;;;;;;;11.27;49.54;97386.78;8447641;28;20234;-69
2022/12/29 09:21:17;;;;;;;3.50;1.90;;;;;;;11.48;48.79;97385.56;8448059;28;20224;-69
2022/12/29 09:25:23;;;;;;;3.03;1.80;;;;;;;11.47;49.59;97394.25;8447723;28;20397;-69
2022/12/29 09:29:26;;;;;;;4.30;1.60;;;;;;;11.44;49.71;97381.50;8447776;28;20228;-69
2022/12/29 09:33:29;;;;;;;1.73;1.60;;;;;;;11.67;49.54;97395.72;8447655;28;20239;-69
2022/12/29 09:37:34;;;;;;;2.53;1.73;;;;;;;11.58;49.70;97395.44;8447398;28;20540;-69
2022/12/29 09:41:40;;;;;;;3.27;1.90;;;;;;;11.52;50.03;97394.03;8446887;28;20231;-69
2022/12/29 09:45:45;;;;;;;2.13;1.60;;;;;;;11.44;50.42;97378.91;8446693;28;20239;-70
2022/12/29 09:49:50;;;;;;;3.70;1.60;;;;;;;11.58;50.39;97385.06;8446748;28;20247;-70
2022/12/29 09:53:57;;;;;;;1.73;1.50;;;;;;;11.49;50.42;97369.09;8446359;28;20224;-72
2022/12/29 09:58:02;;;;;;;2.43;1.77;;;;;;;11.45;50.91;97374.53;8445875;28;20444;-69
2022/12/29 10:02:15;;;;;;;3.37;1.50;;;;;;;11.68;50.62;97365.44;8446396;28;20433;-70
2022/12/29 10:06:22;;;;;;;1.93;1.33;;;;;;;11.71;50.41;97373.88;8446232;28;20227;-70
2022/12/29 10:10:32;;;;;;;2.80;1.70;;;;;;;11.45;51.26;97388.34;8446629;28;20558;-69
2022/12/29 10:14:48;;;;;;;1.97;1.77;;;;;;;11.39;51.31;97361.94;8446397;28;20227;-69
2022/12/29 10:19:11;;;;;;;1.90;1.70;;;;;;;11.52;51.07;97360.31;8445984;28;20306;-68
2022/12/29 10:23:29;;;;;;;2.07;1.70;;;;;;;11.61;51.19;97357.16;8446028;28;20255;-69
2022/12/29 10:27:34;;;;;;;1.83;1.57;;;;;;;11.51;51.11;97343.06;8446144;28;20236;-69
2022/12/29 10:31:40;;;;;;;2.23;1.40;;;;;;;11.68;51.09;97365.44;8445902;28;20227;-69
2022/12/29 10:35:43;;;;;;;2.83;1.87;;;;;;;12.21;50.43;97366.63;8445990;28;20231;-69
2022/12/29 10:39:49;;;;;;;2.83;1.53;;;;;;;12.14;50.37;97339.38;8445938;28;20238;-69
2022/12/29 10:43:55;;;;;;;2.80;1.57;;;;;;;12.37;49.97;97339.72;8445902;28;20408;-67
2022/12/29 10:48:01;;;;;;;2.33;1.50;;;;;;;12.51;50.16;97339.72;8445531;28;20224;-69
2022/12/29 10:52:04;;;;;;;1.57;1.47;;;;;;;12.44;49.99;97343.63;8445785;28;20227;-69
2022/12/29 10:56:16;;;;;;;3.07;1.77;;;;;;;12.36;50.70;97338.09;8445476;28;20282;-71
2022/12/29 11:00:22;;;;;;;3.03;1.60;;;;;;;12.02;51.58;97335.75;8445584;28;20227;-71
2022/12/29 11:04:39;;;;;;;2.23;1.60;;;;;;;12.25;50.94;97341.31;8445778;28;20243;-72
2022/12/29 11:08:48;;;;;;;2.33;1.67;;;;;;;12.19;51.63;97326.94;8447729;28;20227;-72
2022/12/29 11:13:00;;;;;;;3.47;1.77;;;;;;;12.20;51.36;97325.19;8452095;28;20543;-71
2022/12/29 11:17:05;;;;;;;2.00;1.77;;;;;;;11.28;51.53;97147.41;8451578;28;20235;-72
2022/12/29 11:21:26;;;;;;;2.53;1.87;;;;;;;12.28;51.40;97315.16;8451730;28;20230;-70
2022/12/29 11:25:29;;;;;;;4.13;1.93;;;;;;;12.35;52.31;97342.41;8451600;28;20223;-71
2022/12/29 11:29:38;;;;;;;2.57;1.53;;;;;;;12.39;52.23;97330.91;8451415;28;20219;-73
2022/12/29 11:33:42;;;;;;;2.63;1.67;;;;;;;12.49;52.74;97341.59;8451561;28;20224;-73
2022/12/29 11:37:45;;;;;;;1.87;1.40;;;;;;;12.55;52.84;97351.59;8450973;28;20246;-72
2022/12/29 11:41:52;;;;;;;2.40;1.70;;;;;;;12.36;53.03;97357.09;8451236;28;20546;-72
2022/12/29 11:45:56;;;;;;;1.67;1.30;;;;;;;12.29;53.35;97364.41;8450180;28;20530;-71
2022/12/29 11:50:02;;;;;;;3.27;1.60;;;;;;;12.39;54.54;97362.06;8450634;28;20251;-70
2022/12/29 11:54:05;;;;;;;1.57;1.43;;;;;;;12.30;55.86;97363.47;8450675;28;20234;-70
2022/12/29 11:58:14;;;;;;;3.07;1.80;;;;;;;12.19;56.86;97354.69;8450426;28;20399;-71
2022/12/29 12:02:41;;;;;;;2.67;1.67;;;;;;;12.46;56.51;97350.38;8450237;28;20228;-71
2022/12/29 12:06:49;;;;;;;2.30;1.70;;;;;;;12.44;56.02;97351.41;8450226;28;20228;-71
2022/12/29 12:10:57;;;;;;;2.37;1.60;;;;;;;12.29;56.71;97341.03;8450341;28;20424;-70
2022/12/29 12:15:00;;;;;;;4.70;1.67;;;;;;;12.54;56.69;97349.91;8449551;28;20239;-72
2022/12/29 12:19:07;;;;;;;7.67;6.87;;;;;;;12.86;61.02;97360.88;8449198;28;20242;-70
2022/12/29 12:23:20;;;;;;;4.67;3.37;;;;;;;13.34;57.52;97346.63;8449762;28;20231;-70
2022/12/29 12:27:27;;;;;;;2.70;2.00;;;;;;;12.88;56.22;97346.03;8449734;28;20232;-70
2022/12/29 12:31:43;;;;;;;3.27;1.70;;;;;;;12.69;55.72;97324.75;8449338;28;20227;-70
2022/12/29 12:35:54;;;;;;;3.50;2.03;;;;;;;12.74;56.12;97355.63;8449282;28;20539;-70
2022/12/29 12:40:21;;;;;;;1.57;1.30;;;;;;;12.75;56.73;97357.28;8448362;28;20228;-70
2022/12/29 12:44:29;;;;;;;1.63;1.27;;;;;;;12.66;56.61;97349.16;8432453;28;20224;-70
2022/12/29 12:48:45;;;;;;;1.53;1.20;;;;;;;12.70;56.39;97344.59;8449045;28;20517;-69
2022/12/29 12:53:12;;;;;;;2.30;1.40;;;;;;;12.85;56.24;97348.84;8448926;28;20507;-70
2022/12/29 12:57:21;;;;;;;1.30;1.20;;;;;;;12.63;56.75;97351.09;8445738;28;20223;-70
2022/12/29 13:01:36;;;;;;;1.30;1.10;;;;;;;12.79;56.53;97354.41;8448575;28;20230;-70
2022/12/29 13:05:48;;;;;;;1.10;1.00;;;;;;;12.75;56.90;97352.09;8448613;28;20285;-70
2022/12/29 13:10:21;;;;;;;2.30;1.27;;;;;;;12.74;57.12;97353.00;8448189;28;20232;-70
2022/12/29 13:14:33;;;;;;;1.90;1.50;;;;;;;12.80;57.38;97358.69;8447818;28;20220;-72
2022/12/29 13:18:42;;;;;;;2.40;1.27;;;;;;;12.82;57.29;97349.00;8447463;28;20228;-70
2022/12/29 13:22:51;;;;;;;1.60;1.23;;;;;;;12.74;58.03;97359.06;8448052;28;20419;-70
2022/12/29 13:26:57;;;;;;;2.13;1.47;;;;;;;12.94;57.42;97352.59;8447690;28;20282;-72
2022/12/29 13:31:08;;;;;;;1.47;1.30;;;;;;;13.05;57.48;97347.53;8446671;28;20549;-72
2022/12/29 13:35:25;;;;;;;1.87;1.70;;;;;;;12.68;57.93;97336.06;8447411;28;20241;-72
2022/12/29 13:39:32;;;;;;;2.13;1.30;;;;;;;12.73;59.07;97352.19;8447569;28;20219;-71
2022/12/29 13:43:37;;;;;;;2.67;1.50;;;;;;;12.39;58.02;97265.16;8447402;28;20436;-71
2022/12/29 13:47:43;;;;;;;1.60;1.50;;;;;;;12.91;58.26;97353.63;8447152;28;20228;-70
2022/12/29 13:51:50;;;;;;;2.60;2.00;;;;;;;12.92;58.15;97357.06;8447062;28;20240;-70
2022/12/29 13:55:56;;;;;;;2.70;2.10;;;;;;;12.91;58.16;97363.22;8446531;28;20237;-71
2022/12/29 14:00:04;;;;;;;2.73;2.10;;;;;;;12.90;58.42;97384.91;8446645;28;20228;-72
2022/12/29 14:04:13;;;;;;;1.70;1.60;;;;;;;12.85;58.63;97374.81;8446533;28;20236;-71
2022/12/29 14:08:18;;;;;;;2.77;1.60;;;;;;;12.81;58.52;97369.91;8446666;28;20232;-72
2022/12/29 14:12:23;;;;;;;2.20;1.80;;;;;;;12.82;58.89;97385.41;8446514;28;20220;-71
2022/12/29 14:16:29;;;;;;;2.93;1.93;;;;;;;12.69;60.31;97376.69;8446149;28;20235;-71
2022/12/29 14:20:35;;;;;;;3.53;2.73;;;;;;;12.28;63.03;97398.22;8446037;28;20609;-71
2022/12/29 14:24:43;;;;;;;5.37;2.27;;;;;;;12.62;62.22;97391.00;8446267;28;20229;-71
2022/12/29 14:28:47;;;;;;;3.37;1.93;;;;;;;12.50;62.90;97371.81;8445928;28;20523;-71
2022/12/29 14:33:02;;;;;;;3.40;2.57;;;;;;;12.71;62.46;97367.03;8446270;28;20243;-72
2022/12/29 14:37:24;;;;;;;3.30;3.00;;;;;;;12.34;63.79;97369.31;8445902;28;20232;-72
2022/12/29 14:41:30;;;;;;;6.73;4.47;;;;;;;12.31;64.89;97374.69;8446200;28;20231;-71
2022/12/29 14:45:37;;;;;;;6.53;5.83;;;;;;;11.89;65.83;97373.72;8453052;28;20227;-71
2022/12/29 14:49:41;;;;;;;6.87;5.50;;;;;;;12.42;64.03;97381.84;8452717;28;20231;-72
2022/12/29 14:53:48;;;;;;;7.27;5.40;;;;;;;12.62;63.39;97373.66;8453048;28;20232;-71
2022/12/29 14:57:53;;;;;;;9.67;7.00;;;;;;;12.63;63.57;97375.31;8452641;28;20232;-71
2022/12/29 15:01:56;;;;;;;7.50;6.30;;;;;;;12.56;64.21;97389.59;8452149;28;20257;-72
2022/12/29 15:06:05;;;;;;;6.73;5.13;;;;;;;12.57;64.66;97375.69;8452016;28;20242;-72
2022/12/29 15:10:16;;;;;;;6.63;3.97;;;;;;;11.91;67.31;97390.06;8452342;28;20372;-72
2022/12/29 15:14:30;;;;;;;7.00;4.87;;;;;;;12.50;64.09;97392.59;8452132;28;20228;-72
2022/12/29 15:18:34;;;;;;;6.63;5.57;;;;;;;12.31;64.58;97369.50;8451640;28;20234;-73
2022/12/29 15:22:37;;;;;;;7.57;4.97;;;;;;;12.50;65.03;97389.97;8450705;28;20236;-72
2022/12/29 15:26:42;;;;;;;10.20;6.90;;;;;;;12.34;64.98;97384.91;8451771;28;20235;-72
2022/12/29 15:30:53;;;;;;;8.90;6.60;;;;;;;12.12;64.92;97344.66;8450445;28;20247;-72
2022/12/29 15:34:59;;;;;;;8.87;7.97;;;;;;;12.47;64.49;97387.56;8451083;28;20227;-72
2022/12/29 15:39:18;;;;;;;12.57;10.03;;;;;;;12.53;64.59;97397.59;8451007;28;20232;-72
2022/12/29 15:43:35;;;;;;;14.97;12.93;;;;;;;12.45;64.79;97386.81;8451028;28;20228;-72
2022/12/29 15:47:46;;;;;;;18.70;12.93;;;;;;;12.49;64.88;97389.16;8450918;28;20235;-73
2022/12/29 15:51:49;;;;;;;11.57;9.73;;;;;;;12.49;63.78;97380.53;8450750;28;20247;-72
2022/12/29 15:55:52;;;;;;;12.57;10.10;;;;;;;12.40;64.20;97376.72;8449719;28;20231;-72
2022/12/29 16:00:24;;;;;;;11.57;7.73;;;;;;;12.54;62.94;97381.06;8450168;28;20230;-73
2022/12/29 16:04:29;;;;;;;7.73;5.80;;;;;;;12.29;62.56;97353.19;8450509;28;20227;-72
2022/12/29 16:08:36;;;;;;;4.73;4.20;;;;;;;12.43;62.17;97396.47;8450170;28;20235;-73
2022/12/29 16:12:39;;;;;;;5.17;4.33;;;;;;;12.41;61.32;97395.75;8449910;28;20495;-70
2022/12/29 16:16:46;;;;;;;6.93;4.63;;;;;;;12.45;61.65;97405.88;8449825;28;20231;-70
2022/12/29 16:20:49;;;;;;;2.90;2.70;;;;;;;12.57;61.21;97401.69;8449971;28;20242;-71
2022/12/29 16:24:52;;;;;;;3.80;3.30;;;;;;;12.56;61.10;97406.97;8449907;28;20235;-69
2022/12/29 16:28:57;;;;;;;3.60;3.30;;;;;;;11.92;61.41;97332.88;8449065;28;20419;-71
2022/12/29 16:33:03;;;;;;;3.50;3.20;;;;;;;12.54;61.27;97412.25;8449671;28;20250;-70
2022/12/29 16:37:28;;;;;;;3.20;2.90;;;;;;;12.43;60.98;97389.53;8449569;28;20537;-70
2022/12/29 16:41:32;;;;;;;2.70;2.50;;;;;;;12.58;61.17;97421.50;8449123;28;20232;-70
2022/12/29 16:46:19;;;;;;;6.33;4.60;;;;;;;12.45;60.55;97418.00;8449406;28;20223;-70
2022/12/29 16:50:23;;;;;;;3.23;2.90;;;;;;;12.54;61.32;97434.78;8449135;28;20211;-70
2022/12/29 16:54:34;;;;;;;2.40;2.20;;;;;;;12.47;61.44;97434.31;8448765;28;20515;-70
2022/12/29 16:58:37;;;;;;;3.53;2.20;;;;;;;12.42;62.18;97455.38;8448757;28;20228;-71
2022/12/29 17:02:44;;;;;;;2.87;2.00;;;;;;;12.36;62.75;97454.91;8448729;28;20230;-70
2022/12/29 17:06:49;;;;;;;4.57;1.90;;;;;;;12.44;63.41;97452.69;8448538;28;20232;-71
2022/12/29 17:15:25;;;;;;;1.80;1.40;;;;;;;12.38;64.07;97476.44;8448300;28;20329;-71
2022/12/29 17:19:31;;;;;;;1.60;1.50;;;;;;;12.34;64.55;97478.38;8447570;28;20219;-71
2022/12/29 17:23:35;;;;;;;2.17;1.47;;;;;;;12.39;64.62;97478.09;8447736;28;20224;-70
2022/12/29 17:27:42;;;;;;;2.63;1.87;;;;;;;12.31;64.92;97492.34;8447897;28;20414;-71
2022/12/29 17:31:45;;;;;;;1.60;1.03;;;;;;;12.21;65.88;97503.38;8447621;28;20228;-72
2022/12/29 17:35:48;;;;;;;1.80;1.53;;;;;;;12.18;65.69;97503.56;8447583;28;20231;-72
2022/12/29 17:39:58;;;;;;;2.10;1.53;;;;;;;12.36;65.09;97497.28;8446815;28;20255;-71
2022/12/29 17:44:01;;;;;;;2.20;1.47;;;;;;;12.03;66.60;97475.00;8447259;28;20235;-71
2022/12/29 17:48:08;;;;;;;2.17;1.30;;;;;;;12.18;66.15;97443.84;8447320;28;20242;-70
2022/12/29 17:52:12;;;;;;;1.23;1.13;;;;;;;12.32;65.27;97442.09;8447333;28;20228;-70
2022/12/29 17:56:16;;;;;;;1.63;1.40;;;;;;;12.25;65.39;97458.16;8447387;28;20223;-70
2022/12/29 18:00:21;;;;;;;1.60;1.50;;;;;;;12.21;65.01;97464.44;8446791;28;20420;-71
2022/12/29 18:04:23;;;;;;;3.60;3.30;;;;;;;12.16;65.09;97464.69;8446847;28;20522;-70
2022/12/29 18:08:27;;;;;;;4.30;3.90;;;;;;;12.19;65.36;97484.47;8446696;28;20224;-71
2022/12/29 18:12:37;;;;;;;4.73;4.33;;;;;;;12.00;65.23;97484.72;8446429;28;20225;-71
2022/12/29 18:16:40;;;;;;;5.40;4.93;;;;;;;12.18;65.19;97503.56;8445673;28;20546;-70
2022/12/29 18:20:44;;;;;;;9.33;8.43;;;;;;;12.11;64.63;97508.28;8446289;28;20242;-69
2022/12/29 18:24:47;;;;;;;6.60;6.00;;;;;;;12.07;65.26;97506.75;8446264;28;20232;-70
2022/12/29 18:28:52;;;;;;;5.77;4.60;;;;;;;12.05;65.35;97506.88;8446287;28;20534;-70
2022/12/29 18:32:55;;;;;;;5.30;4.57;;;;;;;12.00;65.60;97505.47;8446008;28;20230;-71
2022/12/29 18:36:58;;;;;;;5.13;3.90;;;;;;;11.95;65.18;97500.53;8445918;28;20423;-70
2022/12/29 18:41:01;;;;;;;9.00;6.50;;;;;;;12.02;65.17;97509.63;8445734;28;20235;-69
2022/12/29 18:45:15;;;;;;;6.53;5.03;;;;;;;11.93;65.83;97502.38;8445471;28;20242;-69
2022/12/29 18:49:17;;;;;;;3.80;3.40;;;;;;;11.66;66.82;97495.19;8445841;28;20223;-70
2022/12/29 18:53:22;;;;;;;5.37;4.03;;;;;;;11.79;66.19;97499.72;8445944;28;20299;-69
2022/12/29 18:57:24;;;;;;;4.90;3.80;;;;;;;11.92;65.88;97511.09;8445670;28;20227;-70
2022/12/29 19:01:29;;;;;;;4.00;3.60;;;;;;;12.02;65.20;97507.03;8445823;28;20242;-72
2022/12/29 19:05:37;;;;;;;4.40;3.40;;;;;;;11.89;65.66;97516.41;8445829;28;20224;-69
2022/12/29 19:09:39;;;;;;;3.60;3.30;;;;;;;11.95;65.54;97510.06;8445485;28;20553;-71
2022/12/29 19:13:42;;;;;;;4.30;3.87;;;;;;;12.04;65.49;97523.34;8445585;28;20255;-69
2022/12/29 19:17:46;;;;;;;4.97;4.47;;;;;;;11.88;65.91;97527.69;8445422;28;20420;-70
2022/12/29 19:22:09;;;;;;;5.60;4.03;;;;;;;12.07;65.16;97532.72;8445235;28;20232;-70
2022/12/29 19:26:30;;;;;;;5.17;3.40;;;;;;;13.44;76.79;97528.00;8445306;28;20232;-70
2022/12/29 19:30:33;;;;;;;3.70;3.40;;;;;;;13.26;65.19;97518.72;8448679;28;20228;-70
2022/12/29 19:34:38;;;;;;;4.37;3.93;;;;;;;12.58;64.31;97524.59;8451383;28;20232;-70
2022/12/29 19:38:40;;;;;;;4.40;4.00;;;;;;;12.55;64.47;97522.19;8451455;28;20236;-70
2022/12/29 19:42:43;;;;;;;6.20;5.40;;;;;;;12.46;64.33;97526.16;8451072;28;20239;-70
2022/12/29 19:46:46;;;;;;;5.60;5.07;;;;;;;12.35;64.35;97523.34;8451152;28;20428;-71
2022/12/29 19:50:50;;;;;;;4.77;4.00;;;;;;;12.29;64.05;97532.31;8451096;28;20428;-70
2022/12/29 19:54:53;;;;;;;3.53;3.00;;;;;;;12.02;64.78;97525.22;8450662;28;20238;-70
2022/12/29 19:58:57;;;;;;;3.23;2.80;;;;;;;12.05;64.70;97531.97;8450780;28;20310;-70
2022/12/29 20:03:00;;;;;;;5.23;2.03;;;;;;;11.84;65.31;97532.25;8450903;28;20283;-70
2022/12/29 20:07:04;;;;;;;1.80;1.70;;;;;;;11.86;64.91;97516.56;8450577;28;20235;-70
2022/12/29 20:11:09;;;;;;;3.83;2.30;;;;;;;11.50;66.19;97500.41;8450447;28;20227;-70
2022/12/29 20:15:12;;;;;;;5.07;3.47;;;;;;;11.70;65.16;97490.69;8450700;28;20239;-70
2022/12/29 20:19:15;;;;;;;5.80;3.80;;;;;;;11.95;64.57;97497.09;8449847;28;20246;-71